createdAt,value
2019-04-01T08:12:38.633Z,99287.83
2019-04-01T08:15:07.208Z,99293.13
2019-04-01T13:42:17.613Z,99489.87
2019-04-01T13:44:45.882Z,99482.80
2019-04-01T13:47:14.130Z,99487.11
2019-04-01T13:49:42.409Z,99480.96
2019-04-01T13:52:10.653Z,99475.33
2019-04-01T13:54:50.455Z,99470.06
2019-04-01T13:57:18.673Z,99468.70
2019-04-01T13:59:49.560Z,99465.27
2019-04-01T14:02:16.926Z,99467.84
2019-04-01T14:04:45.167Z,99453.26
2019-04-01T14:07:13.440Z,99444.77
2019-04-01T14:09:41.695Z,99437.72
2019-04-01T14:12:09.954Z,99440.30
2019-04-01T14:14:38.204Z,99441.69
2019-04-01T14:17:06.464Z,99436.87
2019-04-01T14:19:34.693Z,99428.41
2019-04-01T14:22:02.963Z,99428.92
2019-04-01T14:24:31.205Z,99424.95
2019-04-01T14:26:59.494Z,99418.34
2019-04-01T14:29:27.746Z,99413.93
2019-04-01T14:31:55.982Z,99414.73
2019-04-01T14:34:24.269Z,99408.98
2019-04-01T14:36:52.510Z,99405.02
2019-04-01T14:39:20.782Z,99409.45
2019-04-01T14:41:49.107Z,99404.08
2019-04-01T14:44:17.397Z,99403.24
2019-04-01T14:46:45.622Z,99405.41
2019-04-01T14:49:13.894Z,99398.42
2019-04-01T14:51:42.611Z,99390.06
2019-04-01T14:54:10.967Z,99387.02
2019-04-01T14:56:39.204Z,99384.30
2019-04-01T14:59:07.482Z,99385.66
2019-04-01T15:01:35.725Z,99374.63
2019-04-01T15:04:04.027Z,99375.08
2019-04-01T15:06:32.319Z,99383.42
2019-04-01T15:09:00.559Z,99378.56
2019-04-01T15:11:28.825Z,99365.30
2019-04-01T15:13:59.859Z,99361.67
2019-04-01T15:16:27.063Z,99365.68
2019-04-01T15:18:55.313Z,99354.28
2019-04-01T15:21:23.596Z,99345.86
2019-04-01T15:23:53.415Z,99341.42
2019-04-01T15:26:21.829Z,99336.16
2019-04-01T15:28:50.063Z,99330.87
2019-04-01T15:31:18.314Z,99323.78
2019-04-01T15:33:46.573Z,99319.31
2019-04-01T15:36:14.822Z,99315.78
2019-04-01T15:38:43.096Z,99307.92
2019-04-01T15:41:11.336Z,99311.82
2019-04-01T15:43:40.182Z,99307.86
2019-04-01T15:46:09.263Z,99305.64
2019-04-01T15:48:37.548Z,99299.46
2019-04-01T15:51:05.804Z,99302.09
2019-04-01T15:53:34.862Z,99290.66
2019-04-01T15:56:03.495Z,99298.58
2019-04-01T15:58:31.730Z,99287.98
2019-04-01T16:01:01.184Z,99291.08
2019-04-01T16:03:29.532Z,99295.05
2019-04-01T16:05:57.808Z,99282.20
2019-04-01T16:08:26.044Z,99283.06
2019-04-01T16:10:54.306Z,99280.38
2019-04-01T16:13:22.549Z,99284.28
2019-04-01T16:15:50.834Z,99279.44
2019-04-01T16:18:19.069Z,99275.02
2019-04-01T16:20:47.399Z,99276.34
2019-04-01T16:23:15.639Z,99271.52
2019-04-01T16:25:43.918Z,99271.91
2019-04-01T16:28:12.144Z,99276.77
2019-04-01T16:30:40.402Z,99259.95
2019-04-01T16:33:10.813Z,99274.02
2019-04-01T16:35:38.619Z,99266.92
2019-04-01T16:38:06.881Z,99265.66
2019-04-01T16:40:35.106Z,99260.38
2019-04-01T16:43:04.779Z,99260.74
2019-04-01T16:45:33.009Z,99264.27
2019-04-01T16:48:02.948Z,99260.25
2019-04-01T16:50:31.183Z,99261.09
2019-04-01T16:52:59.413Z,99261.45
2019-04-01T16:55:27.694Z,99256.63
2019-04-01T16:57:55.927Z,99263.13
2019-04-01T17:00:26.070Z,99258.19
2019-04-01T17:02:54.237Z,99248.50
2019-04-01T17:05:31.515Z,99248.45
2019-04-01T17:07:59.745Z,99247.94
2019-04-01T17:10:28.014Z,99246.16
2019-04-01T17:12:56.253Z,99244.38
2019-04-01T17:15:24.484Z,99237.34
2019-04-01T17:17:52.749Z,99237.67
2019-04-01T17:20:20.990Z,99242.45
2019-04-01T17:22:49.280Z,99237.20
2019-04-01T17:25:17.531Z,99241.45
2019-04-01T17:27:45.786Z,99242.31
2019-04-01T17:30:14.028Z,99240.42
2019-04-01T17:32:42.304Z,99239.83
2019-04-01T17:35:10.548Z,99236.13
2019-04-01T17:37:38.828Z,99236.47
2019-04-01T17:40:08.300Z,99236.64
2019-04-01T17:42:39.232Z,99237.87
2019-04-01T17:45:24.824Z,99241.23
2019-04-01T17:47:53.102Z,99241.19
2019-04-01T17:50:21.345Z,99237.02
2019-04-01T17:52:49.585Z,99241.71
2019-04-01T17:55:17.899Z,99241.20
2019-04-01T17:57:46.218Z,99241.94
2019-04-01T18:00:17.487Z,99242.29
2019-04-01T18:02:45.722Z,99247.31
2019-04-01T18:05:16.724Z,99245.91
2019-04-01T18:07:44.975Z,99242.84
2019-04-01T18:10:13.721Z,99244.97
2019-04-01T18:12:41.973Z,99243.94
2019-04-01T18:15:10.244Z,99248.67
2019-04-01T18:17:38.483Z,99244.09
2019-04-01T18:20:07.214Z,99246.59
2019-04-01T18:22:35.451Z,99244.64
2019-04-01T18:25:04.350Z,99242.81
2019-04-01T18:27:32.587Z,99241.91
2019-04-01T18:30:00.857Z,99236.91
2019-04-01T18:32:29.097Z,99241.66
2019-04-01T18:34:57.365Z,99241.29
2019-04-01T18:37:25.611Z,99244.80
2019-04-01T18:39:56.981Z,99243.06
2019-04-01T18:42:26.479Z,99240.41
2019-04-01T18:44:54.207Z,99245.26
2019-04-01T18:47:22.494Z,99242.09
2019-04-01T18:49:50.768Z,99245.87
2019-04-01T18:52:19.002Z,99244.09
2019-04-01T18:54:47.268Z,99244.09
2019-04-01T18:57:15.508Z,99235.81
2019-04-01T18:59:43.782Z,99231.33
2019-04-01T19:02:13.067Z,99232.53
2019-04-01T19:04:41.759Z,99233.41
2019-04-01T19:07:10.085Z,99228.07
2019-04-01T19:09:38.326Z,99232.36
2019-04-01T19:12:07.217Z,99226.93
2019-04-01T19:14:35.598Z,99221.89
2019-04-01T19:17:03.868Z,99226.09
2019-04-01T19:19:32.106Z,99225.39
2019-04-01T19:22:00.373Z,99229.33
2019-04-01T19:24:28.703Z,99223.59
2019-04-01T19:26:56.953Z,99218.18
2019-04-01T19:29:25.188Z,99219.73
2019-04-01T19:31:53.459Z,99223.09
2019-04-01T19:34:21.701Z,99221.17
2019-04-01T19:36:49.985Z,99224.63
2019-04-01T19:39:18.222Z,99228.91
2019-04-01T19:41:46.611Z,99227.26
2019-04-01T19:44:14.851Z,99220.11
2019-04-01T19:46:43.115Z,99218.75
2019-04-01T19:49:11.345Z,99222.75
2019-04-01T19:51:39.621Z,99229.66
2019-04-01T19:54:07.867Z,99218.09
2019-04-01T19:56:36.155Z,99220.99
2019-04-01T19:59:04.394Z,99211.09
2019-04-01T20:01:32.647Z,99218.52
2019-04-01T20:04:00.966Z,99214.91
2019-04-01T20:06:29.177Z,99214.52
2019-04-01T20:08:57.478Z,99205.30
2019-04-01T20:11:25.722Z,99204.34
2019-04-01T20:13:55.046Z,99203.30
2019-04-01T20:16:23.474Z,99204.00
2019-04-01T20:18:51.716Z,99198.25
2019-04-01T20:21:19.983Z,99198.20
2019-04-01T20:23:48.221Z,99195.63
2019-04-01T20:26:17.391Z,99194.34
2019-04-01T20:28:46.418Z,99184.91
2019-04-01T20:31:14.708Z,99192.45
2019-04-01T20:33:42.940Z,99187.54
2019-04-01T20:36:11.218Z,99184.52
2019-04-01T20:38:39.464Z,99180.19
2019-04-01T20:41:07.754Z,99183.38
2019-04-01T20:43:36.008Z,99181.96
2019-04-01T20:46:04.300Z,99184.52
2019-04-01T20:48:33.258Z,99175.00
2019-04-01T20:51:01.952Z,99170.87
2019-04-01T20:53:30.227Z,99162.14
2019-04-01T20:55:58.476Z,99152.30
2019-04-01T20:58:26.752Z,99158.08
2019-04-01T21:00:54.990Z,99143.75
2019-04-01T21:03:23.264Z,99142.11
2019-04-01T21:05:53.209Z,99143.19
2019-04-01T21:08:21.560Z,99136.63
2019-04-01T21:10:49.812Z,99142.07
2019-04-01T21:13:18.089Z,99137.15
2019-04-01T21:15:46.316Z,99129.18
2019-04-01T21:18:14.599Z,99128.41
2019-04-01T21:20:42.842Z,99123.59
2019-04-01T21:23:11.121Z,99120.12
2019-04-01T21:25:39.365Z,99124.02
2019-04-01T21:28:07.601Z,99114.17
2019-04-01T21:30:35.877Z,99110.63
2019-04-01T21:33:04.123Z,99112.09
2019-04-01T21:35:32.403Z,99103.83
2019-04-01T21:38:00.639Z,99099.69
2019-04-01T21:40:28.923Z,99094.91
2019-04-01T21:42:57.145Z,99089.84
2019-04-01T21:45:25.413Z,99083.50
2019-04-01T21:47:53.651Z,99075.45
2019-04-01T21:50:21.925Z,99070.81
2019-04-01T21:52:50.165Z,99072.38
2019-04-01T21:55:18.667Z,99069.88
2019-04-01T21:57:46.943Z,99068.80
2019-04-01T22:00:18.117Z,99055.27
2019-04-01T22:02:46.548Z,99061.19
2019-04-01T22:05:14.780Z,99051.48
2019-04-01T22:07:43.042Z,99053.15
2019-04-01T22:10:11.292Z,99040.83
2019-04-01T22:12:39.568Z,99034.73
2019-04-01T22:15:07.799Z,99028.22
2019-04-01T22:17:36.083Z,99030.61
2019-04-01T22:20:05.958Z,99023.53
2019-04-01T22:22:34.218Z,99017.14
2019-04-01T22:25:02.727Z,99017.04
2019-04-01T22:27:30.953Z,99005.57
2019-04-01T22:29:59.243Z,99004.19
2019-04-01T22:32:27.464Z,99006.11
2019-04-01T22:34:55.748Z,99004.66
2019-04-01T22:37:27.502Z,99001.33
2019-04-01T22:39:53.994Z,98992.86
2019-04-01T22:42:22.234Z,98995.29
2019-04-01T22:44:51.992Z,98983.66
2019-04-01T22:47:20.333Z,98981.73
2019-04-01T22:49:48.610Z,98980.39
2019-04-01T22:52:16.853Z,98974.72
2019-04-01T22:54:45.119Z,98975.11
2019-04-01T22:57:13.365Z,98972.42
2019-04-01T22:59:41.628Z,98976.05
2019-04-01T23:02:09.862Z,98966.00
2019-04-01T23:04:39.312Z,98967.95
2019-04-01T23:07:07.732Z,98961.73
2019-04-01T23:09:36.012Z,98954.55
2019-04-01T23:12:04.242Z,98959.64
2019-04-01T23:14:32.683Z,98959.70
2019-04-01T23:17:00.913Z,98956.95
2019-04-01T23:19:29.181Z,98943.97
2019-04-01T23:21:57.421Z,98946.63
2019-04-01T23:24:25.693Z,98940.25
2019-04-01T23:26:55.153Z,98934.47
2019-04-01T23:29:23.581Z,98938.06
2019-04-01T23:31:51.819Z,98930.50
2019-04-01T23:34:20.087Z,98934.73
2019-04-01T23:36:48.323Z,98932.60
2019-04-01T23:39:16.589Z,98929.53
2019-04-01T23:41:44.823Z,98924.45
2019-04-01T23:44:13.101Z,98927.98
2019-04-01T23:46:41.591Z,98921.83
2019-04-01T23:49:11.038Z,98922.22
2019-04-01T23:51:39.474Z,98913.48
2019-04-01T23:54:07.751Z,98911.44
2019-04-01T23:56:35.992Z,98912.36
2019-04-01T23:59:04.226Z,98911.12
